createdAt,value
2017-10-13T00:00:53.415Z,1022.98
2017-10-13T00:01:52.601Z,1022.98
2017-10-13T00:02:52.956Z,1022.98
2017-10-13T00:03:53.216Z,1022.99
2017-10-13T00:04:52.766Z,1022.99
2017-10-13T00:05:53.179Z,1023.01
2017-10-13T00:06:52.732Z,1023.02
2017-10-13T00:07:53.137Z,1023.00
2017-10-13T00:08:53.425Z,1023.02
2017-10-13T00:09:52.802Z,1023.00
2017-10-13T00:10:53.750Z,1023.02
2017-10-13T00:11:53.072Z,1023.04
2017-10-13T00:12:52.759Z,1023.00
2017-10-13T00:13:53.367Z,1023.05
2017-10-13T00:14:52.850Z,1023.07
2017-10-13T00:15:53.119Z,1023.12
2017-10-13T00:16:53.466Z,1023.10
2017-10-13T00:17:52.920Z,1023.10
2017-10-13T00:18:53.105Z,1023.14
2017-10-13T00:19:52.287Z,1023.17
2017-10-13T00:20:52.640Z,1023.16
2017-10-13T00:21:53.482Z,1023.20
2017-10-13T00:22:52.616Z,1023.18
2017-10-13T00:23:52.815Z,1023.23
2017-10-13T00:24:52.707Z,1023.22
2017-10-13T00:25:53.037Z,1023.22
2017-10-13T00:26:53.105Z,1023.23
2017-10-13T00:27:53.573Z,1023.22
2017-10-13T00:28:52.538Z,1023.24
2017-10-13T00:29:52.736Z,1023.23
2017-10-13T00:30:53.233Z,1023.24
2017-10-13T00:31:52.639Z,1023.23
2017-10-13T00:32:53.109Z,1023.27
2017-10-13T00:33:52.948Z,1023.26
2017-10-13T00:34:54.253Z,1023.29
2017-10-13T00:35:52.565Z,1023.30
2017-10-13T00:36:53.020Z,1023.31
2017-10-13T00:37:52.335Z,1023.31
2017-10-13T00:38:53.057Z,1023.36
2017-10-13T00:39:53.256Z,1023.37
2017-10-13T00:40:52.550Z,1023.34
2017-10-13T00:41:53.309Z,1023.35
2017-10-13T00:42:52.628Z,1023.38
2017-10-13T00:43:53.086Z,1023.36
2017-10-13T00:44:52.610Z,1023.39
2017-10-13T00:45:52.723Z,1023.41
2017-10-13T00:46:52.822Z,1023.41
2017-10-13T00:47:53.060Z,1023.42
2017-10-13T00:48:54.979Z,1023.45
2017-10-13T00:49:52.440Z,1023.42
2017-10-13T00:50:52.602Z,1023.41
2017-10-13T00:51:52.768Z,1023.42
2017-10-13T00:52:53.192Z,1023.42
2017-10-13T00:53:52.687Z,1023.44
2017-10-13T00:54:52.643Z,1023.46
2017-10-13T00:55:53.844Z,1023.41
2017-10-13T00:56:52.969Z,1023.39
2017-10-13T00:57:53.289Z,1023.39
2017-10-13T00:58:52.677Z,1023.37
2017-10-13T00:59:53.472Z,1023.32
2017-10-13T01:00:52.770Z,1023.33
2017-10-13T01:01:53.209Z,1023.35
2017-10-13T01:02:52.409Z,1023.36
2017-10-13T01:03:52.809Z,1023.36
2017-10-13T01:04:53.095Z,1023.40
2017-10-13T01:05:52.407Z,1023.38
2017-10-13T01:06:52.706Z,1023.41
2017-10-13T01:07:53.196Z,1023.38
2017-10-13T01:08:52.490Z,1023.35
2017-10-13T01:09:53.825Z,1023.35
2017-10-13T01:10:53.169Z,1023.34
2017-10-13T01:11:53.327Z,1023.38
2017-10-13T01:12:52.720Z,1023.36
2017-10-13T01:13:53.115Z,1023.38
2017-10-13T01:14:53.426Z,1023.36
2017-10-13T01:15:52.726Z,1023.37
2017-10-13T01:16:52.908Z,1023.38
2017-10-13T01:17:53.114Z,1023.37
2017-10-13T01:18:53.371Z,1023.39
2017-10-13T01:19:52.633Z,1023.40
2017-10-13T01:20:53.190Z,1023.43
2017-10-13T01:21:53.145Z,1023.41
2017-10-13T01:22:52.430Z,1023.42
2017-10-13T01:23:52.492Z,1023.41
2017-10-13T01:24:52.650Z,1023.42
2017-10-13T01:25:52.887Z,1023.39
2017-10-13T01:26:52.919Z,1023.37
2017-10-13T01:27:52.878Z,1023.35
2017-10-13T01:28:53.181Z,1023.37
2017-10-13T01:29:52.637Z,1023.37
2017-10-13T01:30:53.031Z,1023.33
2017-10-13T01:31:53.563Z,1023.30
2017-10-13T01:32:52.659Z,1023.24
2017-10-13T01:33:53.001Z,1023.23
2017-10-13T01:34:52.708Z,1023.20
2017-10-13T01:35:53.082Z,1023.20
2017-10-13T01:36:52.282Z,1023.15
2017-10-13T01:37:52.383Z,1023.16
2017-10-13T01:38:52.931Z,1023.21
2017-10-13T01:39:53.070Z,1023.24
2017-10-13T01:40:53.283Z,1023.23
2017-10-13T01:41:52.560Z,1023.23
2017-10-13T01:42:53.123Z,1023.26
2017-10-13T01:43:52.308Z,1023.29
2017-10-13T01:44:52.501Z,1023.27
2017-10-13T01:45:52.790Z,1023.23
2017-10-13T01:46:52.972Z,1023.25
2017-10-13T01:47:53.290Z,1023.21
2017-10-13T01:48:52.632Z,1023.23
2017-10-13T01:49:52.886Z,1023.26
2017-10-13T01:50:53.113Z,1023.26
2017-10-13T01:51:52.543Z,1023.24
2017-10-13T01:52:52.923Z,1023.28
2017-10-13T01:53:53.548Z,1023.26
2017-10-13T01:54:52.605Z,1023.24
2017-10-13T01:55:52.841Z,1023.22
2017-10-13T01:56:53.139Z,1023.25
2017-10-13T01:57:52.783Z,1023.30
2017-10-13T01:58:52.713Z,1023.27
2017-10-13T01:59:52.655Z,1023.26
2017-10-13T02:00:52.970Z,1023.26
2017-10-13T02:01:52.715Z,1023.28
2017-10-13T02:02:53.078Z,1023.29
2017-10-13T02:03:52.593Z,1023.28
2017-10-13T02:04:53.319Z,1023.25
2017-10-13T02:05:52.702Z,1023.30
2017-10-13T02:06:53.180Z,1023.25
2017-10-13T02:07:52.889Z,1023.29
2017-10-13T02:08:52.791Z,1023.32
2017-10-13T02:09:52.577Z,1023.30
2017-10-13T02:10:53.023Z,1023.34
2017-10-13T02:11:52.304Z,1023.31
2017-10-13T02:12:52.561Z,1023.27
2017-10-13T02:13:52.708Z,1023.31
2017-10-13T02:14:52.931Z,1023.30
2017-10-13T02:15:53.276Z,1023.29
2017-10-13T02:16:52.403Z,1023.29
2017-10-13T02:17:52.775Z,1023.21
2017-10-13T02:18:53.118Z,1023.21
2017-10-13T02:19:52.594Z,1023.24
2017-10-13T02:20:52.933Z,1023.23
2017-10-13T02:21:53.548Z,1023.22
2017-10-13T02:22:52.503Z,1023.28
2017-10-13T02:23:52.539Z,1023.29
2017-10-13T02:24:52.806Z,1023.27
2017-10-13T02:25:53.024Z,1023.23
2017-10-13T02:26:53.637Z,1023.22
2017-10-13T02:27:52.959Z,1023.24
2017-10-13T02:28:53.116Z,1023.20
2017-10-13T02:29:53.351Z,1023.26
2017-10-13T02:30:52.450Z,1023.26
2017-10-13T02:31:52.629Z,1023.26
2017-10-13T02:32:52.249Z,1023.25
2017-10-13T02:33:52.726Z,1023.26
2017-10-13T02:34:52.968Z,1023.25
2017-10-13T02:35:53.432Z,1023.25
2017-10-13T02:36:52.507Z,1023.24
2017-10-13T02:37:53.398Z,1023.26
2017-10-13T02:38:52.428Z,1023.27
2017-10-13T02:39:52.526Z,1023.07
2017-10-13T02:40:52.751Z,1023.25
2017-10-13T02:41:52.918Z,1023.22
2017-10-13T02:42:53.369Z,1023.26
2017-10-13T02:43:53.092Z,1023.07
2017-10-13T02:44:52.353Z,1023.29
2017-10-13T02:45:52.495Z,1023.31
2017-10-13T02:46:52.713Z,1023.31
2017-10-13T02:47:52.934Z,1023.32
2017-10-13T02:48:53.357Z,1023.31
2017-10-13T02:49:52.783Z,1023.28
2017-10-13T02:50:52.706Z,1023.30
2017-10-13T02:51:52.900Z,1023.29
2017-10-13T02:52:52.983Z,1023.27
2017-10-13T02:53:53.601Z,1023.21
2017-10-13T02:54:52.815Z,1023.27
2017-10-13T02:55:53.204Z,1023.24
2017-10-13T02:56:52.506Z,1023.26
2017-10-13T02:57:52.859Z,1023.22
2017-10-13T02:58:53.711Z,1023.22
2017-10-13T02:59:53.024Z,1023.24
2017-10-13T03:00:53.344Z,1023.19
2017-10-13T03:01:52.520Z,1023.23
2017-10-13T03:02:52.616Z,1023.23
2017-10-13T03:03:52.938Z,1023.19
2017-10-13T03:04:53.431Z,1023.20
2017-10-13T03:05:52.471Z,1023.16
2017-10-13T03:06:52.591Z,1023.17
2017-10-13T03:07:52.956Z,1023.16
2017-10-13T03:08:52.948Z,1023.14
2017-10-13T03:09:53.262Z,1023.12
2017-10-13T03:10:52.788Z,1023.09
2017-10-13T03:11:53.128Z,1023.09
2017-10-13T03:12:52.657Z,1022.99
2017-10-13T03:13:52.621Z,1023.05
2017-10-13T03:14:52.779Z,1023.06
2017-10-13T03:15:52.808Z,1023.02
2017-10-13T03:16:52.905Z,1022.99
2017-10-13T03:17:53.197Z,1022.97
2017-10-13T03:18:53.457Z,1022.99
2017-10-13T03:19:52.430Z,1023.04
2017-10-13T03:20:52.863Z,1023.03
2017-10-13T03:21:53.101Z,1023.01
2017-10-13T03:22:53.108Z,1023.02
2017-10-13T03:23:53.157Z,1023.01
2017-10-13T03:24:52.460Z,1022.99
2017-10-13T03:25:52.691Z,1023.02
2017-10-13T03:26:53.250Z,1023.02
2017-10-13T03:27:52.735Z,1022.95
2017-10-13T03:28:52.809Z,1022.99
2017-10-13T03:29:53.276Z,1022.96
2017-10-13T03:30:52.489Z,1023.00
2017-10-13T03:31:52.692Z,1023.02
2017-10-13T03:32:54.408Z,1023.06
2017-10-13T03:33:52.537Z,1023.05
2017-10-13T03:34:52.778Z,1023.06
2017-10-13T03:35:53.083Z,1023.07
2017-10-13T03:36:52.635Z,1023.07
2017-10-13T03:37:52.921Z,1023.11
2017-10-13T03:38:53.587Z,1023.04
2017-10-13T03:39:53.485Z,1023.04
2017-10-13T03:40:52.618Z,1023.04
2017-10-13T03:41:52.895Z,1023.03
2017-10-13T03:42:53.120Z,1023.01
2017-10-13T03:43:53.341Z,1023.00
2017-10-13T03:44:52.622Z,1023.02
2017-10-13T03:45:52.934Z,1023.02
2017-10-13T03:46:52.975Z,1023.04
2017-10-13T03:47:53.335Z,1023.07
2017-10-13T03:48:52.330Z,1023.16
2017-10-13T03:49:52.857Z,1023.16
2017-10-13T03:50:53.077Z,1023.14
2017-10-13T03:51:52.502Z,1023.17
2017-10-13T03:52:53.306Z,1023.15
2017-10-13T03:53:52.401Z,1023.19
2017-10-13T03:54:52.547Z,1023.18
2017-10-13T03:55:53.369Z,1023.19
2017-10-13T03:56:52.765Z,1023.22
2017-10-13T03:57:53.060Z,1023.32
2017-10-13T03:58:52.440Z,1023.32
2017-10-13T03:59:52.729Z,1023.28
2017-10-13T04:00:52.941Z,1023.29
2017-10-13T04:01:53.400Z,1023.25
2017-10-13T04:02:52.725Z,1023.28
2017-10-13T04:03:52.940Z,1023.24
2017-10-13T04:04:53.281Z,1023.22
2017-10-13T04:05:52.401Z,1023.23
2017-10-13T04:06:52.529Z,1023.21
2017-10-13T04:07:52.956Z,1023.20
2017-10-13T04:08:52.989Z,1023.21
2017-10-13T04:09:53.260Z,1023.15
2017-10-13T04:10:53.105Z,1023.19
2017-10-13T04:11:53.439Z,1023.23
2017-10-13T04:12:52.865Z,1023.26
2017-10-13T04:13:53.028Z,1023.19
2017-10-13T04:14:52.600Z,1023.21
2017-10-13T04:15:52.687Z,1023.24
2017-10-13T04:16:53.122Z,1023.24
2017-10-13T04:17:53.547Z,1023.26
2017-10-13T04:18:52.612Z,1023.23
2017-10-13T04:19:52.967Z,1023.30
2017-10-13T04:20:53.113Z,1023.24
2017-10-13T04:21:53.520Z,1023.29
2017-10-13T04:22:52.728Z,1023.27
2017-10-13T04:23:53.189Z,1023.29
2017-10-13T04:24:52.620Z,1023.27
2017-10-13T04:25:52.726Z,1023.32
2017-10-13T04:26:52.807Z,1023.30
2017-10-13T04:27:53.227Z,1023.30
2017-10-13T04:28:53.314Z,1023.28
2017-10-13T04:29:52.793Z,1023.28
2017-10-13T04:30:52.980Z,1023.22
2017-10-13T04:31:52.587Z,1023.21
2017-10-13T04:32:52.806Z,1023.25
2017-10-13T04:33:53.436Z,1023.25
2017-10-13T04:34:52.489Z,1023.23
2017-10-13T04:35:53.058Z,1023.22
2017-10-13T04:36:52.770Z,1023.23
2017-10-13T04:37:52.952Z,1023.25
2017-10-13T04:38:52.773Z,1023.29
2017-10-13T04:39:53.611Z,1023.31
2017-10-13T04:40:52.760Z,1023.33
2017-10-13T04:41:52.984Z,1023.31
2017-10-13T04:43:28.688Z,1023.34
2017-10-13T04:44:28.708Z,1023.33
2017-10-13T04:45:29.096Z,1023.33
2017-10-13T04:46:29.372Z,1023.35
2017-10-13T04:47:28.918Z,1023.38
2017-10-13T04:48:29.345Z,1023.35
2017-10-13T04:49:29.307Z,1023.32
2017-10-13T04:50:29.948Z,1023.36
2017-10-13T04:51:29.318Z,1023.29
2017-10-13T04:52:29.524Z,1023.29
2017-10-13T04:53:28.549Z,1023.30
2017-10-13T04:54:28.787Z,1023.28
2017-10-13T04:55:29.018Z,1023.30
2017-10-13T04:56:29.594Z,1023.29
2017-10-13T04:57:28.911Z,1023.31
2017-10-13T04:58:29.208Z,1023.25
2017-10-13T04:59:29.493Z,1023.29
2017-10-13T05:00:28.826Z,1023.29
2017-10-13T05:01:28.936Z,1023.26
2017-10-13T05:02:29.380Z,1023.34
2017-10-13T05:03:28.729Z,1023.31
2017-10-13T05:04:28.941Z,1023.35
2017-10-13T05:05:29.064Z,1023.38
2017-10-13T05:06:29.896Z,1023.40
2017-10-13T05:07:28.750Z,1023.44
2017-10-13T05:08:29.270Z,1023.45
2017-10-13T05:09:28.167Z,1023.43
2017-10-13T05:10:28.216Z,1023.41
2017-10-13T05:11:28.229Z,1023.44
2017-10-13T05:12:27.692Z,1023.46
2017-10-13T05:13:27.824Z,1023.46
2017-10-13T05:14:27.880Z,1023.49
2017-10-13T05:15:28.217Z,1023.51
2017-10-13T05:16:28.278Z,1023.50
2017-10-13T05:17:28.083Z,1023.50
2017-10-13T05:18:28.359Z,1023.55
2017-10-13T05:19:27.851Z,1023.55
2017-10-13T05:20:28.207Z,1023.50
2017-10-13T05:21:27.696Z,1023.54
2017-10-13T05:22:28.042Z,1023.54
2017-10-13T05:23:28.799Z,1023.57
2017-10-13T05:24:28.063Z,1023.55
2017-10-13T05:25:28.477Z,1023.54
2017-10-13T05:26:28.023Z,1023.52
2017-10-13T05:27:28.306Z,1023.51
2017-10-13T05:28:28.581Z,1023.49
2017-10-13T05:29:27.849Z,1023.48
2017-10-13T05:30:27.786Z,1023.48
2017-10-13T05:31:27.729Z,1023.42
2017-10-13T05:32:27.934Z,1023.43
2017-10-13T05:33:28.255Z,1023.39
2017-10-13T05:34:29.596Z,1023.42
2017-10-13T05:35:27.415Z,1023.39
2017-10-13T05:36:27.354Z,1023.36
2017-10-13T05:37:27.580Z,1023.39
2017-10-13T05:38:28.646Z,1023.38
2017-10-13T05:39:28.430Z,1023.38
2017-10-13T05:40:27.841Z,1023.40
2017-10-13T05:41:27.986Z,1023.43
2017-10-13T05:42:27.971Z,1023.48
2017-10-13T05:43:28.592Z,1023.47
2017-10-13T05:44:28.028Z,1023.53
2017-10-13T05:45:28.229Z,1023.56
2017-10-13T05:46:28.508Z,1023.59
2017-10-13T05:47:28.311Z,1023.61
2017-10-13T05:48:27.815Z,1023.59
2017-10-13T05:49:28.539Z,1023.58
2017-10-13T05:50:27.928Z,1023.55
2017-10-13T05:51:27.978Z,1023.53
2017-10-13T05:52:28.330Z,1023.48
2017-10-13T05:53:28.420Z,1023.50
2017-10-13T05:54:27.612Z,1023.45
2017-10-13T05:55:28.019Z,1023.44
2017-10-13T05:56:27.991Z,1023.44
2017-10-13T05:57:28.138Z,1023.46
2017-10-13T05:58:28.521Z,1023.47
2017-10-13T05:59:27.810Z,1023.43
2017-10-13T06:00:27.930Z,1023.51
2017-10-13T06:01:28.138Z,1023.52
2017-10-13T06:02:27.801Z,1023.56
2017-10-13T06:03:28.223Z,1023.61
2017-10-13T06:04:28.633Z,1023.60
2017-10-13T06:05:27.722Z,1023.63
2017-10-13T06:06:28.465Z,1023.62
2017-10-13T06:07:27.745Z,1023.62
2017-10-13T06:08:28.138Z,1023.64
2017-10-13T06:09:28.478Z,1023.62
2017-10-13T06:10:28.782Z,1023.59
2017-10-13T06:11:28.805Z,1023.56
2017-10-13T06:12:28.266Z,1023.49
2017-10-13T06:13:27.779Z,1023.60
2017-10-13T06:14:28.251Z,1023.61
2017-10-13T06:15:27.752Z,1023.60
2017-10-13T06:16:27.957Z,1023.60
2017-10-13T06:17:28.816Z,1023.65
2017-10-13T06:18:28.331Z,1023.64
2017-10-13T06:19:27.464Z,1023.67
2017-10-13T06:20:29.244Z,1023.67
2017-10-13T06:21:27.510Z,1023.68
2017-10-13T06:22:29.018Z,1023.72
2017-10-13T06:23:28.920Z,1023.70
2017-10-13T06:24:28.248Z,1023.77
2017-10-13T06:25:28.847Z,1023.76
2017-10-13T06:26:28.499Z,1023.74
2017-10-13T06:27:30.171Z,1023.77
2017-10-13T06:28:29.109Z,1023.78
2017-10-13T06:29:28.518Z,1023.76
2017-10-13T06:30:28.121Z,1023.75
2017-10-13T06:31:28.529Z,1023.74
2017-10-13T06:32:27.915Z,1023.72
2017-10-13T06:33:28.336Z,1023.75
2017-10-13T06:34:28.950Z,1023.75
2017-10-13T06:35:28.432Z,1023.74
2017-10-13T06:36:27.804Z,1023.75
2017-10-13T06:37:28.204Z,1023.77
2017-10-13T06:38:28.115Z,1023.74
2017-10-13T06:39:27.728Z,1023.72
2017-10-13T06:40:28.378Z,1023.76
2017-10-13T06:41:27.983Z,1023.85
2017-10-13T06:42:29.147Z,1023.86
2017-10-13T06:43:28.304Z,1023.87
2017-10-13T06:44:28.782Z,1023.85
2017-10-13T06:45:28.689Z,1023.91
2017-10-13T06:46:28.475Z,1023.93
2017-10-13T06:47:28.011Z,1023.95
2017-10-13T06:48:28.545Z,1023.98
2017-10-13T06:49:28.117Z,1024.04
2017-10-13T06:50:28.891Z,1024.04
2017-10-13T06:51:28.247Z,1024.11
2017-10-13T06:52:27.466Z,1024.06
2017-10-13T06:53:28.225Z,1024.08
2017-10-13T06:54:28.907Z,1024.10
2017-10-13T06:55:28.185Z,1024.15
2017-10-13T06:56:29.075Z,1024.12
2017-10-13T06:57:28.807Z,1024.09
2017-10-13T06:58:28.376Z,1024.11
2017-10-13T06:59:27.759Z,1024.14
2017-10-13T07:00:28.377Z,1024.16
2017-10-13T07:01:28.151Z,1024.27
2017-10-13T07:02:28.977Z,1024.29
2017-10-13T07:03:28.537Z,1024.25
2017-10-13T07:04:28.031Z,1024.24
2017-10-13T07:05:28.733Z,1024.19
2017-10-13T07:06:28.382Z,1024.20
2017-10-13T07:07:28.675Z,1024.21
2017-10-13T07:08:28.386Z,1024.27
2017-10-13T07:09:27.785Z,1024.23
2017-10-13T07:10:28.368Z,1024.22
2017-10-13T07:11:28.072Z,1024.24
2017-10-13T07:12:28.838Z,1024.21
2017-10-13T07:13:28.435Z,1024.22
2017-10-13T07:14:27.870Z,1024.22
2017-10-13T07:15:27.767Z,1024.27
2017-10-13T07:16:27.999Z,1024.24
2017-10-13T07:17:28.258Z,1024.23
2017-10-13T07:18:28.330Z,1024.22
2017-10-13T07:19:27.850Z,1024.16
2017-10-13T07:20:28.319Z,1024.20
2017-10-13T07:21:27.806Z,1024.21
2017-10-13T07:22:29.196Z,1024.19
2017-10-13T07:23:28.603Z,1024.09
2017-10-13T07:24:27.960Z,1024.12
2017-10-13T07:25:28.431Z,1024.14
2017-10-13T07:26:27.974Z,1024.10
2017-10-13T07:27:27.962Z,1024.13
2017-10-13T07:28:28.841Z,1024.15
2017-10-13T07:29:28.437Z,1024.18
2017-10-13T07:30:27.970Z,1024.23
2017-10-13T07:31:28.893Z,1024.22
2017-10-13T07:32:28.663Z,1024.19
2017-10-13T07:33:28.379Z,1024.21
2017-10-13T07:34:27.740Z,1024.20
2017-10-13T07:35:29.174Z,1024.20
2017-10-13T07:36:27.918Z,1024.17
2017-10-13T07:37:28.498Z,1024.24
2017-10-13T07:38:28.642Z,1024.21
2017-10-13T07:39:27.965Z,1024.21
2017-10-13T07:40:27.961Z,1024.20
2017-10-13T07:41:28.033Z,1024.19
2017-10-13T07:42:28.757Z,1024.21
2017-10-13T07:43:28.566Z,1024.21
2017-10-13T07:44:28.692Z,1024.16
2017-10-13T07:45:28.328Z,1024.18
2017-10-13T07:46:28.971Z,1024.22
2017-10-13T07:47:28.572Z,1024.19
2017-10-13T07:48:28.090Z,1024.16
2017-10-13T07:49:28.913Z,1024.15
2017-10-13T07:50:28.331Z,1024.14
2017-10-13T07:51:28.392Z,1024.09
2017-10-13T07:52:27.907Z,1024.13
2017-10-13T07:53:28.569Z,1024.10
2017-10-13T07:54:28.280Z,1024.16
2017-10-13T07:55:28.565Z,1024.15
2017-10-13T07:56:28.105Z,1024.18
2017-10-13T07:57:28.458Z,1024.17
2017-10-13T07:58:28.734Z,1024.19
2017-10-13T07:59:28.091Z,1024.24
2017-10-13T08:00:29.139Z,1024.22
2017-10-13T08:01:28.627Z,1024.22
2017-10-13T08:02:28.197Z,1024.25
2017-10-13T08:03:27.640Z,1024.25
2017-10-13T08:04:28.210Z,1024.23
2017-10-13T08:05:29.270Z,1024.23
2017-10-13T08:06:28.707Z,1024.23
2017-10-13T08:07:28.314Z,1024.20
2017-10-13T08:08:28.904Z,1024.15
2017-10-13T08:09:28.479Z,1024.19
2017-10-13T08:10:28.032Z,1024.21
2017-10-13T08:11:28.645Z,1024.18
2017-10-13T08:12:28.385Z,1024.18
2017-10-13T08:13:28.022Z,1024.19
2017-10-13T08:14:28.425Z,1024.14
2017-10-13T08:15:27.558Z,1024.21
2017-10-13T08:16:27.957Z,1024.19
2017-10-13T08:17:28.143Z,1024.22
2017-10-13T08:18:29.177Z,1024.19
2017-10-13T08:19:28.343Z,1024.19
2017-10-13T08:20:28.701Z,1024.14
2017-10-13T08:21:28.213Z,1024.14
2017-10-13T08:22:28.652Z,1024.13
2017-10-13T08:23:28.118Z,1024.09
2017-10-13T08:24:28.731Z,1024.06
2017-10-13T08:25:28.503Z,1024.06
2017-10-13T08:26:28.248Z,1024.05
2017-10-13T08:27:28.752Z,1024.04
2017-10-13T08:28:28.561Z,1023.97
2017-10-13T08:29:27.890Z,1024.02
2017-10-13T08:30:28.398Z,1024.01
2017-10-13T08:31:27.897Z,1023.98
2017-10-13T08:32:28.000Z,1024.00
2017-10-13T08:33:28.449Z,1024.03
2017-10-13T08:34:27.977Z,1024.02
2017-10-13T08:35:28.546Z,1023.99
2017-10-13T08:36:28.061Z,1024.04
2017-10-13T08:37:28.731Z,1024.07
2017-10-13T08:38:28.404Z,1024.05
2017-10-13T08:39:27.906Z,1024.09
2017-10-13T08:40:28.399Z,1024.07
2017-10-13T08:41:27.896Z,1024.06
2017-10-13T08:42:28.164Z,1024.08
2017-10-13T08:43:28.924Z,1024.07
2017-10-13T08:44:28.218Z,1024.10
2017-10-13T08:45:28.630Z,1024.15
2017-10-13T08:46:28.535Z,1024.10
2017-10-13T08:47:27.992Z,1024.11
2017-10-13T08:48:28.857Z,1024.08
2017-10-13T08:49:28.639Z,1024.11
2017-10-13T08:50:28.435Z,1024.16
2017-10-13T08:51:28.091Z,1024.18
2017-10-13T08:52:28.562Z,1024.12
2017-10-13T08:53:27.981Z,1024.12
2017-10-13T08:54:28.695Z,1024.12
2017-10-13T08:55:28.106Z,1024.06
2017-10-13T08:56:28.769Z,1024.00
2017-10-13T08:57:27.769Z,1024.03
2017-10-13T08:58:27.789Z,1024.03
2017-10-13T08:59:28.253Z,1024.05
2017-10-13T09:00:27.524Z,1024.08
2017-10-13T09:01:27.903Z,1024.02
2017-10-13T09:02:28.531Z,1024.01
2017-10-13T09:03:28.289Z,1023.96
2017-10-13T09:04:28.991Z,1023.94
2017-10-13T09:05:28.568Z,1023.95
2017-10-13T09:06:28.416Z,1023.92
2017-10-13T09:07:27.681Z,1023.92
2017-10-13T09:08:27.876Z,1023.93
2017-10-13T09:09:28.121Z,1023.98
2017-10-13T09:10:28.342Z,1023.93
2017-10-13T09:11:28.221Z,1023.92
2017-10-13T09:12:28.618Z,1023.90
2017-10-13T09:13:28.117Z,1023.93
2017-10-13T09:14:28.534Z,1023.96
2017-10-13T09:15:27.472Z,1024.03
2017-10-13T09:16:27.787Z,1024.04
2017-10-13T09:17:28.005Z,1024.04
2017-10-13T09:18:28.777Z,1024.03
2017-10-13T09:19:28.342Z,1024.03
2017-10-13T09:20:27.875Z,1024.02
2017-10-13T09:21:27.877Z,1024.01
2017-10-13T09:22:28.507Z,1024.06
2017-10-13T09:23:28.438Z,1024.06
2017-10-13T09:24:27.633Z,1024.07
2017-10-13T09:25:27.985Z,1024.04
2017-10-13T09:26:28.523Z,1024.06
2017-10-13T09:27:54.379Z,1024.06
2017-10-13T09:28:55.043Z,1024.03
2017-10-13T09:29:54.454Z,1024.08
2017-10-13T09:30:54.708Z,1024.08
2017-10-13T09:31:55.254Z,1024.08
2017-10-13T09:32:54.512Z,1024.03
2017-10-13T09:33:54.819Z,1024.07
2017-10-13T09:34:55.541Z,1024.05
2017-10-13T09:35:54.623Z,1024.11
2017-10-13T09:36:55.618Z,1024.11
2017-10-13T09:37:54.717Z,1024.08
2017-10-13T09:38:55.083Z,1024.07
2017-10-13T09:39:54.796Z,1024.08
2017-10-13T09:40:55.427Z,1024.12
2017-10-13T09:41:55.171Z,1024.15
2017-10-13T09:42:54.478Z,1024.18
2017-10-13T09:43:54.997Z,1024.22
2017-10-13T09:44:55.222Z,1024.19
2017-10-13T09:45:55.024Z,1024.21
2017-10-13T09:46:55.281Z,1024.20
2017-10-13T09:47:54.846Z,1024.20
2017-10-13T09:48:55.202Z,1024.17
2017-10-13T09:49:55.699Z,1024.20
2017-10-13T09:50:55.006Z,1024.19
2017-10-13T09:51:55.086Z,1024.25
2017-10-13T09:52:54.357Z,1024.24
2017-10-13T09:53:54.535Z,1024.23
2017-10-13T09:54:55.386Z,1024.26
2017-10-13T09:55:55.090Z,1024.28
2017-10-13T09:56:55.653Z,1024.27
2017-10-13T09:57:55.318Z,1024.27
2017-10-13T09:58:55.002Z,1024.27
2017-10-13T09:59:55.297Z,1024.26
2017-10-13T10:00:54.853Z,1024.27
2017-10-13T10:01:55.497Z,1024.25
2017-10-13T10:02:55.069Z,1024.26
2017-10-13T10:03:54.357Z,1024.26
2017-10-13T10:04:54.702Z,1024.22
2017-10-13T10:05:55.050Z,1024.27
2017-10-13T10:06:55.046Z,1024.26
2017-10-13T10:07:55.491Z,1024.25
2017-10-13T10:08:55.166Z,1024.30
2017-10-13T10:09:54.533Z,1024.30
2017-10-13T10:10:55.283Z,1024.28
2017-10-13T10:11:54.465Z,1024.36
2017-10-13T10:12:55.160Z,1024.35
2017-10-13T10:13:55.266Z,1024.34
2017-10-13T10:14:54.828Z,1024.36
2017-10-13T10:15:16.080Z,1024.40
2017-10-13T10:16:16.451Z,1024.41
2017-10-13T10:17:16.007Z,1024.41
2017-10-13T10:18:16.574Z,1024.41
2017-10-13T10:19:16.006Z,1024.39
2017-10-13T10:20:16.253Z,1024.40
2017-10-13T10:21:16.670Z,1024.41
2017-10-13T10:22:16.279Z,1024.49
2017-10-13T10:23:17.138Z,1024.41
2017-10-13T10:24:16.618Z,1024.42
2017-10-13T10:25:15.883Z,1024.42
2017-10-13T10:26:16.734Z,1024.39
2017-10-13T10:27:15.993Z,1024.46
2017-10-13T10:28:16.192Z,1024.45
2017-10-13T10:29:16.346Z,1024.48
2017-10-13T10:30:15.889Z,1024.45
2017-10-13T10:31:16.652Z,1024.44
2017-10-13T10:32:15.657Z,1024.42
2017-10-13T10:33:16.231Z,1024.47
2017-10-13T10:34:16.417Z,1024.44
2017-10-13T10:35:16.136Z,1024.49
2017-10-13T10:36:16.745Z,1024.52
2017-10-13T10:37:15.926Z,1024.54
2017-10-13T10:38:16.065Z,1024.49
2017-10-13T10:39:16.739Z,1024.56
2017-10-13T10:40:16.217Z,1024.54
2017-10-13T10:41:16.717Z,1024.53
2017-10-13T10:42:15.776Z,1024.36
2017-10-13T10:43:16.021Z,1024.58
2017-10-13T10:44:16.846Z,1024.53
2017-10-13T10:45:16.681Z,1024.52
2017-10-13T10:46:16.269Z,1024.50
2017-10-13T10:47:16.498Z,1024.57
2017-10-13T10:48:15.851Z,1024.50
2017-10-13T10:49:16.649Z,1024.51
2017-10-13T10:50:17.271Z,1024.51
2017-10-13T10:51:16.046Z,1024.47
2017-10-13T10:52:16.209Z,1024.50
2017-10-13T10:53:17.031Z,1024.47
2017-10-13T10:54:16.636Z,1024.47
2017-10-13T10:55:16.042Z,1024.48
2017-10-13T10:56:16.434Z,1024.45
2017-10-13T10:57:16.226Z,1024.45
2017-10-13T10:58:15.907Z,1024.40
2017-10-13T10:59:16.561Z,1024.39
2017-10-13T11:00:16.174Z,1024.42
2017-10-13T11:01:15.903Z,1024.43
2017-10-13T11:02:16.240Z,1024.39
2017-10-13T11:03:15.630Z,1024.41
2017-10-13T11:04:18.062Z,1024.37
2017-10-13T11:05:16.149Z,1024.38
2017-10-13T11:06:16.927Z,1024.44
2017-10-13T11:07:16.419Z,1024.43
2017-10-13T11:08:15.886Z,1024.45
2017-10-13T11:09:16.725Z,1024.47
2017-10-13T11:10:16.428Z,1024.48
2017-10-13T11:11:16.173Z,1024.49
2017-10-13T11:12:16.506Z,1024.56
2017-10-13T11:13:16.744Z,1024.50
2017-10-13T11:14:16.591Z,1024.53
2017-10-13T11:15:16.746Z,1024.52
2017-10-13T11:16:16.273Z,1024.52
2017-10-13T11:17:16.922Z,1024.49
2017-10-13T11:18:16.719Z,1024.53
2017-10-13T11:19:16.130Z,1024.51
2017-10-13T11:20:16.886Z,1024.50
2017-10-13T11:21:16.394Z,1024.48
2017-10-13T11:22:16.975Z,1024.50
2017-10-13T11:23:16.274Z,1024.49
2017-10-13T11:24:15.671Z,1024.50
2017-10-13T11:25:15.895Z,1024.52
2017-10-13T11:26:16.268Z,1024.54
2017-10-13T11:27:15.606Z,1024.50
2017-10-13T11:28:16.000Z,1024.50
2017-10-13T11:29:16.260Z,1024.54
2017-10-13T11:30:16.955Z,1024.53
2017-10-13T11:31:16.636Z,1024.52
2017-10-13T11:32:16.134Z,1024.49
2017-10-13T11:33:16.750Z,1024.51
2017-10-13T11:34:16.792Z,1024.47
2017-10-13T11:35:16.390Z,1024.43
2017-10-13T11:36:15.948Z,1024.44
2017-10-13T11:37:16.852Z,1024.39
2017-10-13T11:38:16.138Z,1024.42
2017-10-13T11:39:16.552Z,1024.41
2017-10-13T11:40:15.711Z,1024.38
2017-10-13T11:41:16.591Z,1024.39
2017-10-13T11:42:16.365Z,1024.41
2017-10-13T11:43:15.862Z,1024.41
2017-10-13T11:44:16.629Z,1024.41
2017-10-13T11:45:15.805Z,1024.42
2017-10-13T11:46:16.629Z,1024.42
2017-10-13T11:47:16.505Z,1024.37
2017-10-13T11:48:16.408Z,1024.40
2017-10-13T11:49:15.768Z,1024.34
2017-10-13T11:50:16.061Z,1024.41
2017-10-13T11:51:16.328Z,1024.31
2017-10-13T11:52:16.335Z,1024.32
2017-10-13T11:53:17.129Z,1024.37
2017-10-13T11:54:16.755Z,1024.32
2017-10-13T11:55:16.066Z,1024.35
2017-10-13T11:55:43.599Z,1024.33
2017-10-13T11:56:44.354Z,1024.36
2017-10-13T11:57:43.955Z,1024.32
2017-10-13T11:58:44.781Z,1024.34
2017-10-13T11:59:44.318Z,1024.36
2017-10-13T12:00:44.011Z,1024.34
2017-10-13T12:01:44.685Z,1024.36
2017-10-13T12:02:44.436Z,1024.36
2017-10-13T12:03:44.648Z,1024.34
2017-10-13T12:04:44.732Z,1024.38
2017-10-13T12:05:44.252Z,1024.37